This is the latest recevied weather packets stored in our database for station/object KC3SOZ. If no packets are shown the sender has not sent any weather packets the latest 10 day(s).
| Time | Temp. | Humidity | Pressure | Rain* | Wind** | Luminosity | Snow |
|---|---|---|---|---|---|---|---|
| 1778259032 | 15° C | 54% | 1012.8 hPa | 0 mm | - | 233 W/m² | - |
| 1778258728 | 15° C | 53% | 1013.1 hPa | 0 mm | - | 300 W/m² | - |
| 1778258425 | 15.56° C | 55% | 1013.1 hPa | 0 mm | - | 296 W/m² | - |
| 1778258123 | 15° C | 57% | 1013.2 hPa | 0 mm | - | 814 W/m² | - |
| 1778257819 | 15.56° C | 51% | 1013.2 hPa | 0 mm | - | 392 W/m² | - |
| 1778257516 | 15° C | 53% | 1013.4 hPa | 0 mm | - | 935 W/m² | - |
| 1778257214 | 13.89° C | 61% | 1013.5 hPa | 0 mm | - | 989 W/m² | - |
| 1778256910 | 14.44° C | 57% | 1013.8 hPa | 0 mm | - | 138 W/m² | - |
| 1778256608 | 15° C | 53% | 1013.9 hPa | 0 mm | - | 200 W/m² | - |
| 1778256306 | 15° C | 57% | 1013.8 hPa | 0 mm | - | 470 W/m² | - |
| 1778256003 | 15.56° C | 54% | 1013.9 hPa | 0 mm | - | 324 W/m² | - |
| 1778255699 | 15.56° C | 50% | 1013.9 hPa | 0 mm | - | 765 W/m² | - |
| 1778255396 | 15.56° C | 56% | 1013.9 hPa | 0 mm | - | 838 W/m² | - |
| 1778255094 | 15° C | 63% | 1013.5 hPa | 0 mm | - | 804 W/m² | - |
| 1778254790 | 15° C | 56% | 1013.6 hPa | 0 mm | - | 786 W/m² | - |
| 1778254487 | 15° C | 56% | 1013.5 hPa | 0 mm | - | 786 W/m² | - |
| 1778254184 | 14.44° C | 54% | 1013.7 hPa | 0 mm | - | 771 W/m² | - |
| 1778253880 | 14.44° C | 55% | 1013.4 hPa | 0 mm | - | 762 W/m² | - |
| 1778253576 | 14.44° C | 56% | 1013.7 hPa | 0 mm | - | 752 W/m² | - |
| 1778253273 | 14.44° C | 57% | 1013.5 hPa | 0 mm | - | 742 W/m² | - |
| 1778252970 | 14.44° C | 57% | 1013.8 hPa | 0 mm | - | 733 W/m² | - |
| 1778252666 | 13.89° C | 58% | 1013.9 hPa | 0 mm | - | 729 W/m² | - |
| 1778252362 | 13.89° C | 62% | 1014.1 hPa | 0 mm | - | 720 W/m² | - |
| 1778252059 | 13.89° C | 62% | 1014.1 hPa | 0 mm | - | 706 W/m² | - |
| 1778251756 | 12.78° C | 68% | 1014.2 hPa | 0 mm | - | 699 W/m² | - |
* Rain latest hour (hover to see other rain measurements)
** Current wind speed in m/s (hover to see current wind gust speed)